createdAt,value
2023-03-05T00:01:53.641Z,26.13
2023-03-05T00:04:22.747Z,25.02
2023-03-05T00:06:52.567Z,26.08
2023-03-05T00:09:20.636Z,25.55
2023-03-05T00:11:51.132Z,26.25
2023-03-05T00:14:20.476Z,25.02
2023-03-05T00:16:51.489Z,24.75
2023-03-05T00:19:23.283Z,27.00
2023-03-05T00:21:53.334Z,25.63
2023-03-05T00:24:29.342Z,27.17
2023-03-05T00:26:59.880Z,25.30
2023-03-05T00:29:31.670Z,27.08
2023-03-05T00:31:59.826Z,23.10
2023-03-05T00:34:28.754Z,24.38
2023-03-05T00:37:00.121Z,25.08
2023-03-05T00:39:28.390Z,24.48
2023-03-05T00:41:58.424Z,24.23
2023-03-05T00:44:26.863Z,25.55
2023-03-05T00:46:59.683Z,24.33
2023-03-05T00:49:33.361Z,23.75
2023-03-05T00:52:04.453Z,22.92
2023-03-05T00:54:32.762Z,24.63
2023-03-05T00:57:01.282Z,25.33
2023-03-05T00:59:30.458Z,22.52
2023-03-05T01:01:59.309Z,23.58
2023-03-05T01:04:28.363Z,23.85
2023-03-05T01:06:58.270Z,24.33
2023-03-05T01:09:28.261Z,23.33
2023-03-05T01:12:00.347Z,21.00
2023-03-05T01:14:29.822Z,23.00
2023-03-05T01:16:58.478Z,22.88
2023-03-05T01:19:27.192Z,23.30
2023-03-05T01:21:55.443Z,23.08
2023-03-05T01:24:27.422Z,22.67
2023-03-05T01:26:56.551Z,22.60
2023-03-05T01:29:24.715Z,22.25
2023-03-05T01:31:53.325Z,24.25
2023-03-05T01:34:23.465Z,21.50
2023-03-05T01:37:00.411Z,20.80
2023-03-05T01:39:28.842Z,22.25
2023-03-05T01:41:57.006Z,22.02
2023-03-05T01:44:34.104Z,22.95
2023-03-05T01:47:02.428Z,21.60
2023-03-05T01:49:34.840Z,21.92
2023-03-05T01:52:02.919Z,21.90
2023-03-05T01:54:40.548Z,21.85
2023-03-05T01:57:14.160Z,21.02
2023-03-05T01:59:43.456Z,22.10
2023-03-05T02:02:11.899Z,21.88
2023-03-05T02:04:48.614Z,20.23
2023-03-05T02:07:17.430Z,19.38
2023-03-05T02:09:47.248Z,19.65
2023-03-05T02:12:20.041Z,20.85
2023-03-05T02:14:49.648Z,19.90
2023-03-05T02:17:17.689Z,19.88
2023-03-05T02:19:55.764Z,18.52
2023-03-05T02:22:26.954Z,19.20
2023-03-05T02:25:00.612Z,19.88
2023-03-05T02:27:35.333Z,19.77
2023-03-05T02:30:11.262Z,21.35
2023-03-05T02:32:41.331Z,17.92
2023-03-05T02:35:10.633Z,19.55
2023-03-05T02:37:39.530Z,20.08
2023-03-05T02:40:11.668Z,20.75
2023-03-05T02:45:26.433Z,18.70
2023-03-05T02:47:55.400Z,20.23
2023-03-05T02:50:23.548Z,19.85
2023-03-05T02:52:52.540Z,19.67
2023-03-05T02:55:23.627Z,19.45
2023-03-05T02:57:51.716Z,18.75
2023-03-05T03:00:21.651Z,19.42
2023-03-05T03:02:50.524Z,18.05
2023-03-05T03:05:18.812Z,19.83
2023-03-05T03:07:48.423Z,19.83
2023-03-05T03:10:19.233Z,19.60
2023-03-05T03:12:48.583Z,19.23
2023-03-05T03:15:17.796Z,18.55
2023-03-05T03:17:46.246Z,18.33
2023-03-05T03:20:16.861Z,17.50
2023-03-05T03:22:46.045Z,18.00
2023-03-05T03:25:19.972Z,18.33
2023-03-05T03:27:57.528Z,19.25
2023-03-05T03:30:26.063Z,20.08
2023-03-05T03:32:54.712Z,19.83
2023-03-05T03:35:22.984Z,19.52
2023-03-05T03:37:51.651Z,18.83
2023-03-05T03:40:21.058Z,18.95
2023-03-05T03:42:51.369Z,19.83
2023-03-05T03:45:24.424Z,18.95
2023-03-05T03:47:53.254Z,18.02
2023-03-05T03:50:21.925Z,18.73
2023-03-05T03:53:22.516Z,19.13
2023-03-05T03:55:50.731Z,19.95
2023-03-05T03:58:20.138Z,19.92
2023-03-05T04:00:50.605Z,22.85
2023-03-05T04:03:23.745Z,20.40
2023-03-05T04:05:56.508Z,20.33
2023-03-05T04:08:33.547Z,20.13
2023-03-05T04:11:02.290Z,20.20
2023-03-05T04:13:33.034Z,21.17
2023-03-05T04:16:01.104Z,20.27
2023-03-05T04:18:32.435Z,21.13
2023-03-05T04:21:03.626Z,20.25
2023-03-05T04:23:31.971Z,21.98
2023-03-05T04:26:00.157Z,21.20
2023-03-05T04:28:28.590Z,19.60
2023-03-05T04:30:59.267Z,18.63
2023-03-05T04:33:34.115Z,19.17
2023-03-05T04:36:02.460Z,18.30
2023-03-05T04:38:33.616Z,19.52
2023-03-05T04:41:02.804Z,18.13
2023-03-05T04:43:31.003Z,19.02
2023-03-05T04:45:59.618Z,19.38
2023-03-05T04:48:30.232Z,19.55
2023-03-05T04:51:00.874Z,18.58
2023-03-05T04:53:33.700Z,19.40
2023-03-05T04:56:06.887Z,20.45
2023-03-05T04:58:35.720Z,19.02
2023-03-05T05:01:04.829Z,18.10
2023-03-05T05:03:36.266Z,18.25
2023-03-05T05:06:04.808Z,18.33
2023-03-05T05:08:37.271Z,17.65
2023-03-05T05:11:12.933Z,18.23
2023-03-05T05:16:16.803Z,17.58
2023-03-05T05:18:47.945Z,17.65
2023-03-05T05:21:20.898Z,16.25
2023-03-05T05:23:49.813Z,16.50
2023-03-05T05:26:19.055Z,17.58
2023-03-05T05:28:47.801Z,16.05
2023-03-05T05:31:18.159Z,15.88
2023-03-05T05:33:49.915Z,15.27
2023-03-05T05:36:22.034Z,14.27
2023-03-05T05:38:50.651Z,14.60
2023-03-05T05:41:21.104Z,14.48
2023-03-05T05:43:51.492Z,14.77
2023-03-05T05:46:20.453Z,15.38
2023-03-05T05:48:49.444Z,12.88
2023-03-05T05:51:21.958Z,15.10
2023-03-05T05:53:53.637Z,15.25
2023-03-05T05:56:27.562Z,14.40
2023-03-05T05:58:55.689Z,14.95
2023-03-05T06:01:28.448Z,16.55
2023-03-05T06:03:58.424Z,16.27
2023-03-05T06:06:31.574Z,17.02
2023-03-05T06:09:00.225Z,14.63
2023-03-05T06:11:31.130Z,11.90
2023-03-05T06:14:05.207Z,16.05
2023-03-05T06:16:35.891Z,12.23
2023-03-05T06:19:35.018Z,14.02
2023-03-05T06:22:04.980Z,9.18
2023-03-05T06:24:35.939Z,7.30
2023-03-05T06:27:06.428Z,8.02
2023-03-05T06:29:35.134Z,7.25
2023-03-05T06:32:03.487Z,6.30
2023-03-05T06:34:34.082Z,5.15
2023-03-05T06:37:02.139Z,4.35
2023-03-05T06:39:31.931Z,4.25
2023-03-05T06:42:00.226Z,4.90
2023-03-05T06:44:40.430Z,3.38
2023-03-05T06:47:10.658Z,2.92
2023-03-05T06:49:39.273Z,3.22
2023-03-05T06:52:10.333Z,2.63
2023-03-05T06:54:42.032Z,2.22
2023-03-05T06:57:14.630Z,1.90
2023-03-05T06:59:42.814Z,1.67
2023-03-05T07:02:12.219Z,1.70
2023-03-05T07:04:41.823Z,1.13
2023-03-05T07:07:13.657Z,1.40
2023-03-05T07:09:46.167Z,1.30
2023-03-05T07:12:14.247Z,0.57
2023-03-05T07:14:45.806Z,0.90
2023-03-05T07:17:15.552Z,1.10
2023-03-05T07:19:47.555Z,1.10
2023-03-05T07:22:16.594Z,1.10
2023-03-05T07:24:46.378Z,1.30
2023-03-05T07:27:17.789Z,1.20
2023-03-05T07:29:46.991Z,1.20
2023-03-05T07:32:15.833Z,1.17
2023-03-05T07:34:47.775Z,1.55
2023-03-05T07:37:16.106Z,1.02
2023-03-05T07:39:50.914Z,1.73
2023-03-05T07:42:22.824Z,1.20
2023-03-05T07:44:58.940Z,1.27
2023-03-05T07:47:27.115Z,1.48
2023-03-05T07:49:55.895Z,1.25
2023-03-05T07:52:23.901Z,1.15
2023-03-05T07:54:52.803Z,1.00
2023-03-05T07:57:20.886Z,2.15
2023-03-05T07:59:50.130Z,2.90
2023-03-05T08:02:19.885Z,2.83
2023-03-05T08:04:48.034Z,3.13
2023-03-05T08:07:20.169Z,2.60
2023-03-05T08:09:49.218Z,2.67
2023-03-05T08:12:18.271Z,3.00
2023-03-05T08:14:48.055Z,2.85
2023-03-05T08:17:16.946Z,2.42
2023-03-05T08:19:45.861Z,2.33
2023-03-05T08:22:16.476Z,2.20
2023-03-05T08:24:44.753Z,2.70
2023-03-05T08:27:14.286Z,3.20
2023-03-05T08:29:42.989Z,5.50
2023-03-05T08:32:13.648Z,2.20
2023-03-05T08:34:45.026Z,2.35
2023-03-05T08:37:13.140Z,2.72
2023-03-05T08:39:44.051Z,2.70
2023-03-05T08:42:12.736Z,2.78
2023-03-05T08:44:44.376Z,2.63
2023-03-05T08:47:12.855Z,3.00
2023-03-05T08:49:42.739Z,2.83
2023-03-05T08:52:10.955Z,3.35
2023-03-05T08:54:39.965Z,2.50
2023-03-05T08:57:11.336Z,3.65
2023-03-05T08:59:48.426Z,3.75
2023-03-05T09:02:33.570Z,3.00
2023-03-05T09:05:04.908Z,2.40
2023-03-05T09:07:38.086Z,3.35
2023-03-05T09:10:17.370Z,7.00
2023-03-05T09:15:17.938Z,2.60
2023-03-05T09:17:46.286Z,4.40
2023-03-05T09:20:16.704Z,2.58
2023-03-05T09:22:44.874Z,2.60
2023-03-05T09:25:15.250Z,2.28
2023-03-05T09:27:44.054Z,3.63
2023-03-05T09:30:15.384Z,2.58
2023-03-05T09:32:45.865Z,2.15
2023-03-05T09:35:14.022Z,2.45
2023-03-05T09:37:42.674Z,3.03
2023-03-05T09:40:15.040Z,2.85
2023-03-05T09:43:06.268Z,3.42
2023-03-05T09:45:37.442Z,3.30
2023-03-05T09:48:32.715Z,3.05
2023-03-05T09:51:03.485Z,4.33
2023-03-05T09:53:54.848Z,3.67
2023-03-05T09:56:38.138Z,2.67
2023-03-05T09:59:38.915Z,2.60
2023-03-05T10:02:34.219Z,2.42
2023-03-05T10:05:33.565Z,2.92
2023-03-05T10:08:07.193Z,2.17
2023-03-05T10:10:43.838Z,2.10
2023-03-05T10:16:15.739Z,2.08
2023-03-05T10:18:57.806Z,1.73
2023-03-05T10:21:34.742Z,2.17
2023-03-05T10:24:16.435Z,3.08
2023-03-05T10:26:59.204Z,2.40
2023-03-05T10:29:51.178Z,3.25
2023-03-05T10:32:21.991Z,2.25
2023-03-05T10:35:05.973Z,2.38
2023-03-05T10:37:53.235Z,3.72
2023-03-05T10:40:35.502Z,3.17
2023-03-05T10:43:30.918Z,3.15
2023-03-05T10:46:00.942Z,2.58
2023-03-05T10:48:51.125Z,2.60
2023-03-05T10:51:34.094Z,2.60
2023-03-05T10:54:29.199Z,2.15
2023-03-05T10:57:18.617Z,1.58
2023-03-05T10:59:57.754Z,2.30
2023-03-05T11:02:29.357Z,3.67
2023-03-05T11:05:05.135Z,1.75
2023-03-05T11:07:38.834Z,2.92
2023-03-05T11:10:18.146Z,3.40
2023-03-05T11:12:48.069Z,3.25
2023-03-05T11:15:18.021Z,3.42
2023-03-05T11:17:49.201Z,3.13
2023-03-05T11:20:23.304Z,3.33
2023-03-05T11:23:16.023Z,1.85
2023-03-05T11:26:04.212Z,2.05
2023-03-05T11:28:52.800Z,3.15
2023-03-05T11:31:48.699Z,3.25
2023-03-05T11:34:20.219Z,2.83
2023-03-05T11:36:55.647Z,2.17
2023-03-05T11:39:26.580Z,2.90
2023-03-05T11:42:01.742Z,3.53
2023-03-05T11:44:33.506Z,5.43
2023-03-05T11:47:28.988Z,4.78
2023-03-05T11:50:32.738Z,4.53
2023-03-05T11:53:09.142Z,4.38
2023-03-05T11:56:05.460Z,2.67
2023-03-05T11:58:40.147Z,2.33
2023-03-05T12:01:23.349Z,2.78
2023-03-05T12:03:53.153Z,2.72
2023-03-05T12:06:51.405Z,2.70
2023-03-05T12:09:34.081Z,2.58
2023-03-05T12:12:36.442Z,3.47
2023-03-05T12:15:37.478Z,4.30
2023-03-05T12:18:42.899Z,4.32
2023-03-05T12:21:34.525Z,4.63
2023-03-05T12:24:05.508Z,2.80
2023-03-05T12:27:04.560Z,2.58
2023-03-05T12:30:05.705Z,2.38
2023-03-05T12:32:44.278Z,1.92
2023-03-05T12:35:48.598Z,3.00
2023-03-05T12:38:31.218Z,3.45
2023-03-05T12:41:27.903Z,3.03
2023-03-05T12:44:08.978Z,2.85
2023-03-05T12:46:44.095Z,3.40
2023-03-05T12:49:23.167Z,3.90
2023-03-05T12:51:56.693Z,3.83
2023-03-05T12:54:36.401Z,3.20
2023-03-05T12:57:14.279Z,3.88
2023-03-05T12:59:47.984Z,3.40
2023-03-05T13:02:42.861Z,4.30
2023-03-05T13:05:21.338Z,3.13
2023-03-05T13:08:25.402Z,2.60
2023-03-05T13:10:56.462Z,2.00
2023-03-05T13:13:26.742Z,2.63
2023-03-05T13:15:57.538Z,2.80
2023-03-05T13:18:34.607Z,3.20
2023-03-05T13:21:08.471Z,3.28
2023-03-05T13:23:48.033Z,2.88
2023-03-05T13:26:19.016Z,2.60
2023-03-05T13:29:12.528Z,1.85
2023-03-05T13:31:46.353Z,1.10
2023-03-05T13:34:37.653Z,1.27
2023-03-05T13:37:20.922Z,1.50
2023-03-05T13:42:32.888Z,0.60
2023-03-05T13:45:04.456Z,1.33
2023-03-05T13:47:37.264Z,0.98
2023-03-05T13:50:10.342Z,0.85
2023-03-05T13:52:40.417Z,1.00
2023-03-05T13:55:15.832Z,1.58
2023-03-05T13:57:45.999Z,1.35
2023-03-05T14:00:30.575Z,1.33
2023-03-05T14:03:28.499Z,1.92
2023-03-05T14:06:08.680Z,1.92
2023-03-05T14:08:36.973Z,1.92
2023-03-05T14:11:18.954Z,3.10
2023-03-05T14:13:47.859Z,3.00
2023-03-05T14:16:25.873Z,2.42
2023-03-05T14:18:55.796Z,2.17
2023-03-05T14:21:24.618Z,2.00
2023-03-05T14:23:58.012Z,1.75
2023-03-05T14:26:36.870Z,2.10
2023-03-05T14:29:17.775Z,1.80
2023-03-05T14:31:49.124Z,2.15
2023-03-05T14:34:29.104Z,1.83
2023-03-05T14:41:40.226Z,1.33
2023-03-05T14:44:17.284Z,1.45
2023-03-05T14:46:51.207Z,1.20
2023-03-05T14:49:20.647Z,1.20
2023-03-05T14:51:48.751Z,1.10
2023-03-05T14:54:21.822Z,0.85
2023-03-05T14:56:52.043Z,1.50
2023-03-05T14:59:21.881Z,1.92
2023-03-05T15:01:51.116Z,2.10
2023-03-05T15:04:20.348Z,1.80
2023-03-05T15:06:51.289Z,1.75
2023-03-05T15:09:26.975Z,1.75
2023-03-05T15:11:55.863Z,1.60
2023-03-05T15:14:25.300Z,1.58
2023-03-05T15:16:56.807Z,1.23
2023-03-05T15:19:28.015Z,1.17
2023-03-05T15:22:14.582Z,1.15
2023-03-05T15:24:45.416Z,1.30
2023-03-05T15:30:27.999Z,2.95
2023-03-05T15:33:02.694Z,1.40
2023-03-05T15:35:37.509Z,1.55
2023-03-05T15:38:07.477Z,1.20
2023-03-05T15:44:34.819Z,1.20
2023-03-05T15:47:03.236Z,1.52
2023-03-05T15:49:45.253Z,1.63
2023-03-05T15:52:17.897Z,1.50
2023-03-05T15:54:55.315Z,1.15
2023-03-05T15:57:23.408Z,1.10
2023-03-05T15:59:54.666Z,1.10
2023-03-05T16:02:26.119Z,2.63
2023-03-05T16:04:54.367Z,2.47
2023-03-05T16:07:23.782Z,2.20
2023-03-05T16:09:56.493Z,1.90
2023-03-05T16:12:27.826Z,2.90
2023-03-05T16:14:56.079Z,2.85
2023-03-05T16:17:38.875Z,3.65
2023-03-05T16:20:19.358Z,6.70
2023-03-05T16:22:47.638Z,3.80
2023-03-05T16:25:27.690Z,7.93
2023-03-05T16:28:00.821Z,9.98
2023-03-05T16:30:28.986Z,18.13
2023-03-05T16:32:57.305Z,22.90
2023-03-05T16:35:26.395Z,27.58
2023-03-05T16:38:04.739Z,30.80
2023-03-05T16:41:42.835Z,40.83
2023-03-05T16:44:11.628Z,52.03
2023-03-05T16:46:42.232Z,14.13
2023-03-05T16:49:10.858Z,22.83
2023-03-05T16:51:39.203Z,21.70
2023-03-05T16:54:09.992Z,16.52
2023-03-05T16:56:40.590Z,12.05
2023-03-05T16:59:11.938Z,6.47
2023-03-05T17:01:45.004Z,6.47
2023-03-05T17:04:15.002Z,5.60
2023-03-05T17:06:45.891Z,5.53
2023-03-05T17:09:25.838Z,5.28
2023-03-05T17:11:55.237Z,4.35
2023-03-05T17:14:25.516Z,4.82
2023-03-05T17:16:54.017Z,5.10
2023-03-05T17:19:24.996Z,5.07
2023-03-05T17:21:56.118Z,4.82
2023-03-05T17:24:24.382Z,4.82
2023-03-05T17:26:52.864Z,20.13
2023-03-05T17:29:23.340Z,5.80
2023-03-05T17:31:54.293Z,5.95
2023-03-05T17:34:35.587Z,5.68
2023-03-05T17:37:04.716Z,5.90
2023-03-05T17:39:35.142Z,6.22
2023-03-05T17:42:03.454Z,5.88
2023-03-05T17:47:07.442Z,4.97
2023-03-05T17:49:35.674Z,6.43
2023-03-05T17:52:05.406Z,6.35
2023-03-05T17:54:35.246Z,6.00
2023-03-05T17:57:07.890Z,4.50
2023-03-05T17:59:37.747Z,5.80
2023-03-05T18:02:26.141Z,5.53
2023-03-05T18:04:58.799Z,11.88
2023-03-05T18:07:31.997Z,5.95
2023-03-05T18:10:01.886Z,6.25
2023-03-05T18:12:30.544Z,6.55
2023-03-05T18:15:01.221Z,5.88
2023-03-05T18:17:29.544Z,7.47
2023-03-05T18:19:58.890Z,5.07
2023-03-05T18:22:28.789Z,5.85
2023-03-05T18:24:58.395Z,6.55
2023-03-05T18:27:40.440Z,6.70
2023-03-05T18:30:15.837Z,6.50
2023-03-05T18:32:45.101Z,7.20
2023-03-05T18:35:26.725Z,7.65
2023-03-05T18:37:56.277Z,7.45
2023-03-05T18:40:53.801Z,7.57
2023-03-05T18:44:00.150Z,8.00
2023-03-05T18:46:38.159Z,10.32
2023-03-05T18:49:40.430Z,9.38
2023-03-05T18:52:10.726Z,9.82
2023-03-05T18:54:41.669Z,8.73
2023-03-05T18:57:16.586Z,11.45
2023-03-05T18:59:47.022Z,14.98
2023-03-05T19:02:16.400Z,17.25
2023-03-05T19:04:45.722Z,15.52
2023-03-05T19:07:15.820Z,14.45
2023-03-05T19:09:59.424Z,10.98
2023-03-05T19:12:33.024Z,12.40
2023-03-05T19:15:02.354Z,13.35
2023-03-05T19:17:31.670Z,13.63
2023-03-05T19:20:07.857Z,13.45
2023-03-05T19:22:39.612Z,12.80
2023-03-05T19:25:10.078Z,16.85
2023-03-05T19:27:43.091Z,19.42
2023-03-05T19:30:16.437Z,19.60
2023-03-05T19:32:47.670Z,22.35
2023-03-05T19:35:16.650Z,20.02
2023-03-05T19:37:47.638Z,18.08
2023-03-05T19:40:20.053Z,16.10
2023-03-05T19:42:48.128Z,16.95
2023-03-05T19:45:18.661Z,13.50
2023-03-05T19:47:48.922Z,14.55
2023-03-05T19:50:52.218Z,12.40
2023-03-05T19:53:22.202Z,12.82
2023-03-05T19:55:50.232Z,13.10
2023-03-05T19:58:20.301Z,13.38
2023-03-05T20:00:55.060Z,15.15
2023-03-05T20:03:25.760Z,14.98
2023-03-05T20:05:53.705Z,16.27
2023-03-05T20:08:30.218Z,16.85
2023-03-05T20:10:59.215Z,18.13
2023-03-05T20:13:31.909Z,18.02
2023-03-05T20:16:08.163Z,18.70
2023-03-05T20:18:44.577Z,18.33
2023-03-05T20:21:18.858Z,19.25
2023-03-05T20:23:50.991Z,17.17
2023-03-05T20:26:21.497Z,18.17
2023-03-05T20:28:50.042Z,19.05
2023-03-05T20:31:19.851Z,17.92
2023-03-05T20:33:48.794Z,20.50
2023-03-05T20:36:19.747Z,20.33
2023-03-05T20:38:49.844Z,21.45
2023-03-05T20:41:20.903Z,21.10
2023-03-05T20:43:50.154Z,21.92
2023-03-05T20:46:26.007Z,22.25
2023-03-05T20:48:59.536Z,24.48
2023-03-05T20:51:36.100Z,26.33
2023-03-05T20:54:06.337Z,27.80
2023-03-05T20:56:37.999Z,31.63
2023-03-05T20:59:12.510Z,27.75
2023-03-05T21:01:41.242Z,29.63
2023-03-05T21:04:13.394Z,31.73
2023-03-05T21:06:41.452Z,33.60
2023-03-05T21:09:09.522Z,32.00
2023-03-05T21:11:38.294Z,29.52
2023-03-05T21:14:07.914Z,32.25
2023-03-05T21:16:36.050Z,32.13
2023-03-05T21:19:03.908Z,34.05
2023-03-05T21:21:32.511Z,31.60
2023-03-05T21:24:04.155Z,32.28
2023-03-05T21:26:33.537Z,35.38
2023-03-05T21:29:01.731Z,32.97
2023-03-05T21:31:32.050Z,30.83
2023-03-05T21:34:00.340Z,31.42
2023-03-05T21:36:28.357Z,29.67
2023-03-05T21:38:56.376Z,29.77
2023-03-05T21:41:26.248Z,33.13
2023-03-05T21:44:01.880Z,31.65
2023-03-05T21:46:38.298Z,30.85
2023-03-05T21:49:06.922Z,30.90
2023-03-05T21:52:12.045Z,30.17
2023-03-05T21:54:42.366Z,29.08
2023-03-05T21:57:11.308Z,32.00
2023-03-05T21:59:48.859Z,29.40
2023-03-05T22:02:19.014Z,29.10
2023-03-05T22:04:50.936Z,33.83
2023-03-05T22:07:21.404Z,30.40
2023-03-05T22:10:02.101Z,30.17
2023-03-05T22:12:55.394Z,30.27
2023-03-05T22:15:26.961Z,32.25
2023-03-05T22:17:55.881Z,29.98
2023-03-05T22:20:24.443Z,30.23
2023-03-05T22:22:55.350Z,27.30
2023-03-05T22:25:24.018Z,26.65
2023-03-05T22:27:55.786Z,31.70
2023-03-05T22:30:23.867Z,32.55
2023-03-05T22:32:52.807Z,34.17
2023-03-05T22:35:22.603Z,30.17
2023-03-05T22:37:51.259Z,31.55
2023-03-05T22:40:20.574Z,30.75
2023-03-05T22:42:51.764Z,29.13
2023-03-05T22:45:20.092Z,31.15
2023-03-05T22:47:49.685Z,30.42
2023-03-05T22:50:24.400Z,28.05
2023-03-05T22:52:58.956Z,28.75
2023-03-05T22:55:35.007Z,28.30
2023-03-05T22:58:09.115Z,27.85
2023-03-05T23:00:37.976Z,28.60
2023-03-05T23:03:10.215Z,29.55
2023-03-05T23:05:39.653Z,27.25
2023-03-05T23:08:09.658Z,26.00
2023-03-05T23:10:38.763Z,29.20
2023-03-05T23:13:08.086Z,29.20
2023-03-05T23:15:38.061Z,27.95
2023-03-05T23:18:14.932Z,29.42
2023-03-05T23:20:47.491Z,29.92
2023-03-05T23:23:16.568Z,30.35
2023-03-05T23:25:48.558Z,29.25
2023-03-05T23:28:18.958Z,27.73
2023-03-05T23:30:48.264Z,28.20
2023-03-05T23:33:19.621Z,25.80
2023-03-05T23:35:59.624Z,24.00
2023-03-05T23:38:31.631Z,22.50
2023-03-05T23:41:03.813Z,23.55
2023-03-05T23:43:33.113Z,21.92
2023-03-05T23:46:02.816Z,22.27
2023-03-05T23:48:32.005Z,20.83
2023-03-05T23:51:01.962Z,20.98
2023-03-05T23:53:32.665Z,20.75
2023-03-05T23:56:00.902Z,18.90
2023-03-05T23:58:29.168Z,19.50
